createdAt,value
2023-01-01T00:00:48.672Z,6.20
2023-01-01T00:03:35.859Z,6.50
2023-01-01T00:06:13.812Z,6.10
2023-01-01T00:08:41.607Z,5.40
2023-01-01T00:11:10.379Z,5.60
2023-01-01T00:13:40.755Z,5.40
2023-01-01T00:16:14.615Z,4.90
2023-01-01T00:18:41.750Z,4.50
2023-01-01T00:21:14.201Z,4.50
2023-01-01T00:23:41.210Z,4.70
2023-01-01T00:26:14.153Z,4.40
2023-01-01T00:28:41.375Z,4.70
2023-01-01T00:31:09.284Z,4.70
2023-01-01T00:33:35.907Z,5.00
2023-01-01T00:36:23.585Z,5.30
2023-01-01T00:38:50.415Z,4.90
2023-01-01T00:41:17.830Z,4.80
2023-01-01T00:43:44.794Z,5.90
2023-01-01T00:46:12.662Z,4.70
2023-01-01T00:48:39.991Z,5.10
2023-01-01T00:51:07.582Z,5.50
2023-01-01T00:53:34.369Z,5.60
2023-01-01T00:56:01.162Z,5.80
2023-01-01T00:58:28.095Z,5.20
2023-01-01T01:00:55.037Z,4.90
2023-01-01T01:03:28.477Z,4.90
2023-01-01T01:06:09.311Z,5.20
2023-01-01T01:08:38.797Z,4.40
2023-01-01T01:11:13.379Z,5.30
2023-01-01T01:13:41.309Z,4.80
2023-01-01T01:16:18.357Z,4.50
2023-01-01T01:18:45.350Z,4.40
2023-01-01T01:21:18.064Z,4.10
2023-01-01T01:23:45.568Z,3.80
2023-01-01T01:26:16.116Z,3.50
2023-01-01T01:28:49.287Z,3.20
2023-01-01T01:31:21.807Z,3.20
2023-01-01T01:33:49.979Z,4.00
2023-01-01T01:36:18.822Z,3.80
2023-01-01T01:38:46.191Z,3.60
2023-01-01T01:41:28.576Z,4.00
2023-01-01T01:44:00.910Z,3.40
2023-01-01T01:46:41.221Z,3.50
2023-01-01T01:49:27.526Z,3.40
2023-01-01T01:51:55.337Z,3.90
2023-01-01T01:54:25.567Z,3.40
2023-01-01T01:57:01.257Z,3.50
2023-01-01T01:59:33.591Z,3.80
2023-01-01T02:02:01.680Z,3.00
2023-01-01T02:04:28.742Z,3.30
2023-01-01T02:06:55.651Z,3.30
2023-01-01T02:09:22.881Z,3.10
2023-01-01T02:11:49.652Z,2.20
2023-01-01T02:14:16.490Z,3.00
2023-01-01T02:16:47.727Z,2.60
2023-01-01T02:19:20.551Z,2.60
2023-01-01T02:22:20.150Z,2.20
2023-01-01T02:24:52.705Z,2.80
2023-01-01T02:27:57.508Z,2.80
2023-01-01T02:30:24.371Z,2.50
2023-01-01T02:32:57.800Z,2.70
2023-01-01T02:35:43.874Z,2.50
2023-01-01T02:38:25.646Z,2.50
2023-01-01T02:40:59.496Z,2.80
2023-01-01T02:43:26.312Z,3.10
2023-01-01T02:45:53.963Z,2.50
2023-01-01T02:48:41.135Z,3.30
2023-01-01T02:51:14.782Z,4.00
2023-01-01T02:53:47.967Z,3.30
2023-01-01T02:56:38.261Z,3.60
2023-01-01T02:59:40.605Z,3.60
2023-01-01T03:02:45.283Z,3.50
2023-01-01T03:06:26.012Z,3.80
2023-01-01T03:09:30.971Z,4.50
2023-01-01T03:12:24.610Z,4.40
2023-01-01T03:14:58.840Z,4.70
2023-01-01T03:17:47.279Z,4.50
2023-01-01T03:20:21.646Z,5.10
2023-01-01T03:22:49.292Z,4.70
2023-01-01T03:25:26.857Z,5.70
2023-01-01T03:28:17.714Z,5.10
2023-01-01T03:30:45.976Z,4.80
2023-01-01T03:33:22.814Z,5.20
2023-01-01T03:36:12.325Z,5.00
2023-01-01T03:39:06.592Z,4.90
2023-01-01T03:41:55.632Z,5.40
2023-01-01T03:45:08.883Z,5.80
2023-01-01T03:47:35.798Z,5.70
2023-01-01T03:50:03.913Z,5.50
2023-01-01T03:53:02.771Z,4.90
2023-01-01T04:01:57.532Z,5.50
2023-01-01T04:06:51.539Z,5.70
2023-01-01T04:09:25.393Z,5.30
2023-01-01T04:12:01.948Z,5.00
2023-01-01T04:14:33.207Z,5.40
2023-01-01T04:17:01.601Z,4.80
2023-01-01T04:19:28.827Z,4.40
2023-01-01T04:21:56.025Z,4.60
2023-01-01T04:24:23.410Z,4.70
2023-01-01T04:26:52.751Z,4.30
2023-01-01T04:29:20.637Z,4.50
2023-01-01T04:31:48.047Z,4.70
2023-01-01T04:34:15.208Z,4.50
2023-01-01T04:36:42.225Z,4.20
2023-01-01T04:39:09.062Z,4.20
2023-01-01T04:41:35.980Z,4.10
2023-01-01T04:44:02.946Z,4.30
2023-01-01T04:46:30.084Z,4.30
2023-01-01T04:48:59.252Z,3.80
2023-01-01T04:51:26.036Z,4.00
2023-01-01T04:53:52.940Z,3.90
2023-01-01T04:56:24.086Z,3.90
2023-01-01T04:58:50.921Z,4.10
2023-01-01T05:01:27.189Z,3.90
2023-01-01T05:03:55.066Z,4.10
2023-01-01T05:06:23.688Z,4.10
2023-01-01T05:08:54.087Z,3.50
2023-01-01T05:11:27.583Z,3.70
2023-01-01T05:13:57.607Z,4.00
2023-01-01T05:16:28.952Z,3.70
2023-01-01T05:18:56.318Z,3.70
2023-01-01T05:21:26.636Z,3.50
2023-01-01T05:23:59.444Z,4.00
2023-01-01T05:26:33.190Z,3.70
2023-01-01T05:29:01.235Z,4.00
2023-01-01T05:31:32.698Z,3.50
2023-01-01T05:36:33.406Z,3.60
2023-01-01T05:39:00.287Z,3.30
2023-01-01T05:41:27.199Z,3.70
2023-01-01T05:43:53.951Z,3.40
2023-01-01T05:46:23.695Z,3.50
2023-01-01T05:48:52.587Z,3.40
2023-01-01T05:51:28.639Z,3.60
2023-01-01T05:53:55.895Z,3.60
2023-01-01T05:56:23.500Z,3.20
2023-01-01T05:58:50.305Z,3.30
2023-01-01T06:01:21.327Z,3.40
2023-01-01T06:03:49.124Z,4.00
2023-01-01T06:06:29.104Z,3.50
2023-01-01T06:09:01.397Z,3.40
2023-01-01T06:11:29.605Z,3.40
2023-01-01T06:13:58.853Z,3.40
2023-01-01T06:16:27.331Z,3.20
2023-01-01T06:18:54.021Z,3.10
2023-01-01T06:21:24.141Z,3.20
2023-01-01T06:23:50.832Z,2.80
2023-01-01T06:26:23.460Z,3.50
2023-01-01T06:31:20.307Z,3.30
2023-01-01T06:33:47.992Z,3.30
2023-01-01T06:36:17.780Z,3.10
2023-01-01T06:38:47.929Z,3.30
2023-01-01T06:41:18.146Z,2.80
2023-01-01T06:43:45.517Z,2.80
2023-01-01T06:46:31.303Z,3.10
2023-01-01T06:49:02.197Z,3.10
2023-01-01T06:51:37.419Z,2.50
2023-01-01T06:54:05.540Z,3.60
2023-01-01T06:56:32.973Z,2.80
2023-01-01T06:59:02.799Z,2.90
2023-01-01T07:01:32.179Z,2.30
2023-01-01T07:04:03.426Z,3.00
2023-01-01T07:06:32.104Z,2.50
2023-01-01T07:08:59.336Z,2.40
2023-01-01T07:11:26.764Z,2.50
2023-01-01T07:13:54.422Z,3.00
2023-01-01T07:16:22.293Z,3.10
2023-01-01T07:18:49.916Z,2.40
2023-01-01T07:21:47.680Z,3.10
2023-01-01T07:24:15.893Z,2.80
2023-01-01T07:26:43.242Z,3.20
2023-01-01T07:29:10.443Z,2.90
2023-01-01T07:31:40.078Z,3.60
2023-01-01T07:34:12.376Z,3.10
2023-01-01T07:36:39.053Z,2.70
2023-01-01T07:39:06.058Z,2.90
2023-01-01T07:41:32.974Z,3.60
2023-01-01T07:44:00.510Z,4.00
2023-01-01T07:46:51.702Z,3.10
2023-01-01T07:49:22.534Z,3.30
2023-01-01T07:51:51.518Z,3.30
2023-01-01T07:54:22.875Z,3.20
2023-01-01T07:56:51.109Z,3.30
2023-01-01T07:59:20.682Z,2.80
2023-01-01T08:01:49.274Z,2.90
2023-01-01T08:04:17.902Z,3.00
2023-01-01T08:06:46.874Z,3.00
2023-01-01T08:09:15.358Z,2.80
2023-01-01T08:11:43.441Z,2.60
2023-01-01T08:14:12.828Z,2.80
2023-01-01T08:16:40.776Z,3.10
2023-01-01T08:19:08.810Z,3.20
2023-01-01T08:21:36.910Z,3.00
2023-01-01T08:24:05.492Z,3.00
2023-01-01T08:26:36.470Z,2.80
2023-01-01T08:29:08.239Z,3.10
2023-01-01T08:31:36.457Z,2.80
2023-01-01T08:34:04.537Z,2.90
2023-01-01T08:36:33.072Z,3.70
2023-01-01T08:39:01.626Z,2.70
2023-01-01T08:41:29.991Z,3.00
2023-01-01T08:43:58.367Z,3.30
2023-01-01T08:46:26.744Z,3.60
2023-01-01T08:48:55.021Z,2.70
2023-01-01T08:51:23.036Z,2.60
2023-01-01T08:53:51.805Z,2.70
2023-01-01T08:56:20.740Z,3.10
2023-01-01T08:58:49.852Z,2.80
2023-01-01T09:01:21.766Z,2.80
2023-01-01T09:03:50.250Z,2.60
2023-01-01T09:06:18.395Z,3.30
2023-01-01T09:08:46.663Z,3.50
2023-01-01T09:11:25.169Z,3.30
2023-01-01T09:13:54.084Z,3.40
2023-01-01T09:16:23.216Z,3.30
2023-01-01T09:18:51.592Z,2.90
2023-01-01T09:21:19.736Z,3.20
2023-01-01T09:23:47.780Z,2.70
2023-01-01T09:26:15.824Z,3.10
2023-01-01T09:28:44.008Z,2.80
2023-01-01T09:31:12.569Z,3.20
2023-01-01T09:33:41.213Z,2.40
2023-01-01T09:36:26.504Z,2.70
2023-01-01T09:38:58.531Z,2.70
2023-01-01T09:41:54.834Z,3.20
2023-01-01T09:45:24.675Z,2.90
2023-01-01T09:48:14.932Z,2.90
2023-01-01T09:50:56.526Z,3.00
2023-01-01T09:54:19.452Z,2.60
2023-01-01T09:56:50.101Z,3.00
2023-01-01T09:59:18.483Z,3.10
2023-01-01T10:02:03.986Z,3.20
2023-01-01T10:04:53.380Z,3.20
2023-01-01T10:07:53.839Z,3.10
2023-01-01T10:10:36.776Z,2.80
2023-01-01T10:13:22.740Z,3.20
2023-01-01T10:16:24.727Z,3.10
2023-01-01T10:18:57.793Z,2.70
2023-01-01T10:23:56.091Z,3.10
2023-01-01T10:26:29.776Z,3.20
2023-01-01T10:29:15.691Z,3.00
2023-01-01T10:31:47.076Z,2.90
2023-01-01T10:34:24.651Z,2.80
2023-01-01T10:36:56.930Z,2.90
2023-01-01T10:39:25.519Z,3.20
2023-01-01T10:41:53.503Z,3.40
2023-01-01T10:44:32.208Z,3.10
2023-01-01T10:47:29.671Z,2.60
2023-01-01T10:50:00.586Z,3.30
2023-01-01T10:52:38.536Z,3.00
2023-01-01T10:55:21.619Z,3.50
2023-01-01T10:57:49.820Z,3.10
2023-01-01T11:00:29.151Z,3.10
2023-01-01T11:03:22.201Z,3.10
2023-01-01T11:06:33.255Z,3.40
2023-01-01T11:09:26.987Z,3.80
2023-01-01T11:12:11.749Z,3.70
2023-01-01T11:14:54.704Z,3.70
2023-01-01T11:17:24.425Z,2.90
2023-01-01T11:20:01.534Z,3.20
2023-01-01T11:22:47.301Z,3.40
2023-01-01T11:25:23.883Z,3.50
2023-01-01T11:28:17.162Z,4.10
2023-01-01T11:31:05.083Z,4.00
2023-01-01T11:33:38.719Z,3.70
2023-01-01T11:36:07.425Z,3.00
2023-01-01T11:38:35.656Z,3.30
2023-01-01T11:41:07.087Z,3.20
2023-01-01T11:43:44.675Z,3.70
2023-01-01T11:46:22.684Z,3.40
2023-01-01T11:48:51.264Z,4.10
2023-01-01T11:51:32.997Z,3.50
2023-01-01T11:54:22.136Z,3.70
2023-01-01T11:56:54.501Z,3.50
2023-01-01T11:59:29.004Z,3.60
2023-01-01T12:02:03.948Z,3.80
2023-01-01T12:04:48.663Z,3.40
2023-01-01T12:07:23.342Z,4.20
2023-01-01T12:10:06.003Z,3.40
2023-01-01T12:13:07.100Z,3.10
2023-01-01T12:15:56.152Z,3.70
2023-01-01T12:18:35.774Z,3.90
2023-01-01T12:30:06.720Z,3.80
2023-01-01T12:33:08.380Z,2.70
2023-01-01T12:35:59.427Z,3.60
2023-01-01T12:39:44.454Z,3.60
2023-01-01T12:42:20.247Z,4.00
2023-01-01T12:45:31.354Z,3.90
2023-01-01T12:48:37.102Z,4.20
2023-01-01T12:51:13.723Z,3.70
2023-01-01T12:54:14.767Z,3.80
2023-01-01T12:56:55.666Z,3.90
2023-01-01T12:59:34.870Z,4.30
2023-01-01T13:02:14.977Z,3.70
2023-01-01T13:04:43.829Z,3.70
2023-01-01T13:07:14.088Z,3.90
2023-01-01T13:09:45.522Z,3.20
2023-01-01T13:12:20.109Z,3.60
2023-01-01T13:14:50.261Z,3.60
2023-01-01T13:17:21.081Z,3.50
2023-01-01T13:19:56.725Z,3.50
2023-01-01T13:22:27.575Z,3.60
2023-01-01T13:25:11.240Z,4.30
2023-01-01T13:27:58.118Z,4.70
2023-01-01T13:30:44.546Z,4.10
2023-01-01T13:33:31.295Z,4.40
2023-01-01T13:36:09.022Z,3.90
2023-01-01T13:38:59.055Z,4.00
2023-01-01T13:41:27.321Z,3.60
2023-01-01T13:44:01.160Z,3.90
2023-01-01T13:46:53.915Z,3.80
2023-01-01T13:49:40.455Z,4.00
2023-01-01T13:52:37.652Z,3.60
2023-01-01T13:55:44.199Z,3.90
2023-01-01T13:58:47.354Z,3.90
2023-01-01T14:01:33.468Z,3.70
2023-01-01T14:04:07.567Z,4.20
2023-01-01T14:06:43.668Z,4.70
2023-01-01T14:09:17.163Z,4.80
2023-01-01T14:11:45.426Z,4.10
2023-01-01T14:14:29.724Z,4.10
2023-01-01T14:17:01.077Z,4.30
2023-01-01T14:19:29.647Z,4.20
2023-01-01T14:21:58.004Z,4.20
2023-01-01T14:24:27.254Z,4.10
2023-01-01T14:26:55.894Z,4.30
2023-01-01T14:29:30.829Z,3.90
2023-01-01T14:32:02.484Z,4.10
2023-01-01T14:34:33.297Z,4.50
2023-01-01T14:37:07.391Z,4.20
2023-01-01T14:39:37.307Z,3.50
2023-01-01T14:42:15.170Z,3.90
2023-01-01T14:44:46.456Z,4.30
2023-01-01T14:47:29.513Z,3.90
2023-01-01T14:50:26.955Z,4.40
2023-01-01T14:53:04.932Z,4.10
2023-01-01T14:55:45.228Z,4.60
2023-01-01T14:58:28.723Z,4.70
2023-01-01T15:01:26.530Z,4.40
2023-01-01T15:04:00.652Z,4.70
2023-01-01T15:06:30.039Z,4.60
2023-01-01T15:09:00.545Z,4.60
2023-01-01T15:11:29.468Z,4.70
2023-01-01T15:14:02.774Z,4.60
2023-01-01T15:16:39.715Z,4.60
2023-01-01T15:19:19.268Z,4.70
2023-01-01T15:21:54.130Z,5.20
2023-01-01T15:24:24.164Z,5.00
2023-01-01T15:26:57.796Z,4.30
2023-01-01T15:29:34.381Z,3.90
2023-01-01T15:32:08.454Z,4.70
2023-01-01T15:34:54.387Z,5.20
2023-01-01T15:37:44.366Z,4.00
2023-01-01T15:40:15.773Z,4.40
2023-01-01T15:43:11.851Z,4.50
2023-01-01T15:46:14.687Z,4.30
2023-01-01T15:48:57.646Z,4.50
2023-01-01T15:51:31.067Z,5.00
2023-01-01T15:54:14.982Z,4.70
2023-01-01T15:56:43.199Z,4.30
2023-01-01T15:59:22.643Z,5.10
2023-01-01T16:01:53.925Z,4.60
2023-01-01T16:04:29.480Z,4.70
2023-01-01T16:06:58.866Z,4.50
2023-01-01T16:09:26.974Z,4.60
2023-01-01T16:11:57.555Z,4.40
2023-01-01T16:14:25.705Z,4.50
2023-01-01T16:16:58.124Z,4.30
2023-01-01T16:19:27.020Z,4.80
2023-01-01T16:21:55.158Z,4.70
2023-01-01T16:24:24.650Z,4.80
2023-01-01T16:26:53.438Z,5.90
2023-01-01T16:29:21.720Z,6.00
2023-01-01T16:31:53.870Z,6.80
2023-01-01T16:34:23.392Z,7.00
2023-01-01T16:36:53.013Z,7.00
2023-01-01T16:39:23.322Z,6.80
2023-01-01T16:41:54.278Z,7.00
2023-01-01T16:44:22.430Z,7.00
2023-01-01T16:46:50.504Z,6.90
2023-01-01T16:49:18.696Z,7.40
2023-01-01T16:51:46.831Z,6.90
2023-01-01T16:54:14.973Z,7.10
2023-01-01T16:56:43.233Z,7.50
2023-01-01T16:59:11.350Z,7.30
2023-01-01T17:01:39.643Z,6.90
2023-01-01T17:04:09.958Z,7.50
2023-01-01T17:06:39.412Z,8.50
2023-01-01T17:09:08.345Z,8.70
2023-01-01T17:11:36.816Z,7.40
2023-01-01T17:14:06.535Z,8.40
2023-01-01T17:16:39.021Z,7.90
2023-01-01T17:19:15.682Z,8.30
2023-01-01T17:21:46.510Z,8.50
2023-01-01T17:24:20.476Z,9.30
2023-01-01T17:26:54.995Z,9.20
2023-01-01T17:29:24.088Z,9.30
2023-01-01T17:31:54.456Z,9.10
2023-01-01T17:34:22.779Z,10.30
2023-01-01T17:36:50.903Z,10.70
2023-01-01T17:39:18.809Z,9.80
2023-01-01T17:41:46.808Z,10.20
2023-01-01T17:44:14.859Z,10.30
2023-01-01T17:46:44.662Z,10.50
2023-01-01T17:49:12.848Z,11.10
2023-01-01T17:51:40.905Z,11.70
2023-01-01T17:54:13.382Z,13.00
2023-01-01T17:56:42.042Z,13.00
2023-01-01T17:59:10.257Z,14.40
2023-01-01T18:01:38.855Z,15.50
2023-01-01T18:04:09.446Z,13.60
2023-01-01T18:06:42.561Z,12.40
2023-01-01T18:09:13.943Z,14.30
2023-01-01T18:11:43.139Z,41.30
2023-01-01T18:14:12.858Z,32.30
2023-01-01T18:16:44.580Z,24.20
2023-01-01T18:19:12.753Z,21.00
2023-01-01T18:21:41.170Z,18.00
2023-01-01T18:24:15.179Z,17.70
2023-01-01T18:26:43.431Z,17.30
2023-01-01T18:29:11.617Z,18.10
2023-01-01T18:31:40.199Z,17.00
2023-01-01T18:34:11.604Z,17.00
2023-01-01T18:36:40.015Z,19.40
2023-01-01T18:39:25.994Z,44.50
2023-01-01T18:42:12.291Z,23.80
2023-01-01T18:44:41.487Z,22.60
2023-01-01T18:47:18.872Z,40.00
2023-01-01T18:49:55.175Z,54.70
2023-01-01T18:52:28.378Z,27.60
2023-01-01T18:55:08.719Z,18.70
2023-01-01T18:57:37.803Z,16.30
2023-01-01T19:00:24.327Z,25.30
2023-01-01T19:03:04.862Z,51.30
2023-01-01T19:05:35.566Z,48.10
2023-01-01T19:08:06.772Z,25.20
2023-01-01T19:10:45.005Z,26.90
2023-01-01T19:13:31.308Z,17.60
2023-01-01T19:16:30.904Z,16.30
2023-01-01T19:19:14.830Z,20.60
2023-01-01T19:21:49.497Z,18.60
2023-01-01T19:24:25.912Z,15.70
2023-01-01T19:27:10.894Z,18.10
2023-01-01T19:29:43.311Z,23.60
2023-01-01T19:34:40.013Z,38.40
2023-01-01T19:37:09.752Z,27.30
2023-01-01T19:39:39.136Z,17.40
2023-01-01T19:42:07.803Z,19.50
2023-01-01T19:44:39.096Z,20.20
2023-01-01T19:47:09.430Z,16.50
2023-01-01T19:49:38.682Z,17.90
2023-01-01T19:52:07.797Z,22.40
2023-01-01T19:54:39.691Z,24.90
2023-01-01T19:57:08.657Z,25.60
2023-01-01T19:59:37.143Z,24.50
2023-01-01T20:02:43.940Z,22.80
2023-01-01T20:04:58.471Z,16.80
2023-01-01T20:07:26.839Z,13.80
2023-01-01T20:09:55.449Z,11.80
2023-01-01T20:12:23.994Z,10.70
2023-01-01T20:14:54.982Z,13.80
2023-01-01T20:17:23.574Z,19.40
2023-01-01T20:19:51.925Z,20.00
2023-01-01T20:22:22.220Z,15.00
2023-01-01T20:24:50.751Z,11.40
2023-01-01T20:27:23.709Z,12.00
2023-01-01T20:29:52.035Z,12.80
2023-01-01T20:32:21.430Z,12.70
2023-01-01T20:34:52.999Z,10.60
2023-01-01T20:37:37.125Z,10.90
2023-01-01T20:40:09.750Z,11.00
2023-01-01T20:42:38.075Z,10.70
2023-01-01T20:45:08.083Z,12.20
2023-01-01T20:47:37.723Z,10.90
2023-01-01T20:50:06.654Z,12.00
2023-01-01T20:52:35.403Z,13.00
2023-01-01T20:55:03.896Z,15.50
2023-01-01T20:57:32.522Z,13.60
2023-01-01T21:00:00.658Z,13.20
2023-01-01T21:02:30.159Z,10.60
2023-01-01T21:04:58.882Z,12.80
2023-01-01T21:07:26.998Z,14.70
2023-01-01T21:09:55.078Z,15.10
2023-01-01T21:12:23.387Z,13.00
2023-01-01T21:14:52.205Z,12.90
2023-01-01T21:17:23.720Z,13.50
2023-01-01T21:19:55.851Z,14.00
2023-01-01T21:22:24.609Z,13.20
2023-01-01T21:24:54.717Z,16.70
2023-01-01T21:27:34.193Z,18.20
2023-01-01T21:30:02.591Z,14.20
2023-01-01T21:32:41.594Z,13.70
2023-01-01T21:35:24.034Z,14.00
2023-01-01T21:37:54.453Z,16.30
2023-01-01T21:40:25.255Z,16.00
2023-01-01T21:42:55.888Z,20.70
2023-01-01T21:45:44.715Z,17.00
2023-01-01T21:48:25.577Z,11.70
2023-01-01T21:50:54.616Z,11.00
2023-01-01T21:53:34.064Z,11.80
2023-01-01T21:56:20.817Z,11.80
2023-01-01T21:59:07.410Z,12.80
2023-01-01T22:01:42.281Z,12.90
2023-01-01T22:04:10.514Z,12.30
2023-01-01T22:06:48.872Z,12.80
2023-01-01T22:09:31.868Z,13.10
2023-01-01T22:12:21.381Z,12.30
2023-01-01T22:14:55.524Z,11.80
2023-01-01T22:17:36.848Z,10.80
2023-01-01T22:20:24.874Z,12.80
2023-01-01T22:22:52.851Z,11.60
2023-01-01T22:25:31.858Z,11.20
2023-01-01T22:36:44.851Z,12.90
2023-01-01T22:39:27.395Z,12.30
2023-01-01T22:41:55.515Z,12.60
2023-01-01T22:44:23.591Z,11.40
2023-01-01T22:46:51.686Z,12.50
2023-01-01T22:49:39.605Z,11.70
2023-01-01T22:52:09.192Z,12.20
2023-01-01T22:54:37.090Z,12.10
2023-01-01T22:57:05.056Z,12.00
2023-01-01T22:59:32.913Z,12.00
2023-01-01T23:02:01.098Z,11.90
2023-01-01T23:04:29.229Z,10.20
2023-01-01T23:06:57.183Z,10.90
2023-01-01T23:09:25.555Z,9.70
2023-01-01T23:11:55.475Z,9.70
2023-01-01T23:14:43.061Z,9.50
2023-01-01T23:17:11.018Z,11.10
2023-01-01T23:19:39.003Z,10.20
2023-01-01T23:22:07.146Z,10.20
2023-01-01T23:24:35.287Z,9.60
2023-01-01T23:27:05.267Z,11.00
2023-01-01T23:29:33.709Z,11.60
2023-01-01T23:32:03.147Z,11.30
2023-01-01T23:34:31.126Z,11.20
2023-01-01T23:36:59.177Z,11.10
2023-01-01T23:39:27.091Z,12.50
2023-01-01T23:41:55.163Z,12.30
2023-01-01T23:44:23.116Z,10.00
2023-01-01T23:46:51.109Z,9.60
2023-01-01T23:49:19.510Z,8.80
2023-01-01T23:51:47.570Z,9.00
2023-01-01T23:54:15.539Z,9.10
2023-01-01T23:56:43.599Z,10.60
2023-01-01T23:59:12.138Z,11.70
